Time;durP1;ratioP1;P1;durP2;ratioP2;P2;SDS_P1;SDS_P2;PMS_P1;PMS_P2;Temp;Humidity;BMP_temperature;BMP_pressure;BME280_temperature;BME280_humidity;BME280_pressure;Samples;Min_cycle;Max_cycle;Signal;HPM_P1;HPM_P2
2021/12/01 00:01:03;;;;;;;7.80;5.03;;;;;;;;;;5032750;28;20479;-59
2021/12/01 00:03:29;;;;;;;7.50;5.10;;;;;;;;;;5032597;28;20197;-59
2021/12/01 00:05:55;;;;;;;9.47;6.10;;;;;;;;;;5032029;28;20455;-59
2021/12/01 00:08:22;;;;;;;8.97;5.93;;;;;;;;;;5032074;28;20436;-60
2021/12/01 00:10:49;;;;;;;8.23;6.10;;;;;;;;;;5032368;28;20853;-60
2021/12/01 00:13:19;;;;;;;10.23;6.80;;;;;;;;;;5032074;28;20868;-58
2021/12/01 00:15:46;;;;;;;10.57;6.90;;;;;;;;;;5032324;28;20475;-59
2021/12/01 00:18:13;;;;;;;9.77;7.10;;;;;;;;;;5032137;28;20932;-59
2021/12/01 00:20:39;;;;;;;9.63;7.27;;;;;;;;;;5032079;28;20444;-59
2021/12/01 00:23:06;;;;;;;8.93;7.00;;;;;;;;;;5032212;28;20436;-59
2021/12/01 00:25:35;;;;;;;11.93;7.60;;;;;;;;;;5032369;28;20439;-59
2021/12/01 00:28:03;;;;;;;11.73;7.60;;;;;;;;;;5031841;28;20470;-59
2021/12/01 00:30:29;;;;;;;11.10;7.87;;;;;;;;;;5031841;28;20841;-59
2021/12/01 00:32:55;;;;;;;10.03;7.53;;;;;;;;;;5032242;28;20626;-58
2021/12/01 00:35:22;;;;;;;10.90;7.77;;;;;;;;;;5031944;28;20448;-59
2021/12/01 00:37:47;;;;;;;8.97;7.63;;;;;;;;;;5031668;28;20439;-58
2021/12/01 00:40:14;;;;;;;11.57;7.60;;;;;;;;;;5031647;28;20542;-58
2021/12/01 00:42:40;;;;;;;11.57;7.87;;;;;;;;;;5031844;28;20259;-59
2021/12/01 00:45:21;;;;;;;12.07;7.20;;;;;;;;;;5031882;28;20474;-59
2021/12/01 00:47:50;;;;;;;10.37;7.63;;;;;;;;;;5031908;28;21024;-59
2021/12/01 00:50:17;;;;;;;10.03;7.63;;;;;;;;;;5031761;28;20884;-59
2021/12/01 00:52:43;;;;;;;11.93;7.60;;;;;;;;;;5031940;28;20447;-59
2021/12/01 00:55:10;;;;;;;12.17;8.20;;;;;;;;;;5031792;28;20459;-59
2021/12/01 00:57:36;;;;;;;9.20;7.20;;;;;;;;;;5031487;28;20446;-59
2021/12/01 01:00:03;;;;;;;9.13;7.37;;;;;;;;;;5031681;28;20445;-59
2021/12/01 01:02:31;;;;;;;10.13;8.50;;;;;;;;;;5031621;28;20439;-58
2021/12/01 01:04:57;;;;;;;10.07;7.70;;;;;;;;;;5031724;28;20495;-59
2021/12/01 01:07:23;;;;;;;8.23;7.30;;;;;;;;;;5031421;28;20406;-59
2021/12/01 01:09:49;;;;;;;8.90;7.63;;;;;;;;;;5031564;28;20479;-56
2021/12/01 01:17:56;;;;;;;9.03;8.13;;;;;;;;;;5031585;28;20474;-54
2021/12/01 01:20:22;;;;;;;11.43;9.03;;;;;;;;;;5031359;28;20490;-54
2021/12/01 01:22:48;;;;;;;9.50;8.50;;;;;;;;;;5031720;28;20452;-54
2021/12/01 01:25:14;;;;;;;9.30;8.27;;;;;;;;;;5031378;28;20244;-55
2021/12/01 01:27:40;;;;;;;11.40;8.63;;;;;;;;;;5031200;28;20193;-55
2021/12/01 01:30:06;;;;;;;9.67;7.67;;;;;;;;;;5031242;28;20439;-56
2021/12/01 01:32:32;;;;;;;8.90;8.00;;;;;;;;;;5031359;28;20197;-56
2021/12/01 01:35:00;;;;;;;7.57;6.77;;;;;;;;;;5031475;28;20498;-57
2021/12/01 01:37:26;;;;;;;7.37;6.67;;;;;;;;;;5031376;28;20467;-57
2021/12/01 01:39:52;;;;;;;9.33;6.87;;;;;;;;;;5031149;28;20710;-57
2021/12/01 01:42:18;;;;;;;7.03;6.33;;;;;;;;;;5034836;28;20629;-58
2021/12/01 01:44:44;;;;;;;7.57;6.63;;;;;;;;;;5033555;28;20212;-57
2021/12/01 01:47:11;;;;;;;7.07;6.37;;;;;;;;;;5035029;28;20295;-57
2021/12/01 01:49:53;;;;;;;8.60;5.83;;;;;;;;;;5034903;28;20205;-57
2021/12/01 01:52:21;;;;;;;6.43;5.60;;;;;;;;;;5034854;28;20483;-57
2021/12/01 01:54:47;;;;;;;7.97;6.00;;;;;;;;;;5035198;28;20205;-58
2021/12/01 01:57:13;;;;;;;6.40;5.60;;;;;;;;;;5034835;28;20193;-59
2021/12/01 01:59:39;;;;;;;6.73;6.03;;;;;;;;;;5034846;28;20651;-58
2021/12/01 02:02:05;;;;;;;7.00;6.30;;;;;;;;;;5034822;28;20435;-59
2021/12/01 02:04:34;;;;;;;7.33;5.53;;;;;;;;;;5034643;28;20213;-58
2021/12/01 02:07:01;;;;;;;7.43;6.73;;;;;;;;;;5034784;28;20197;-58
2021/12/01 02:09:28;;;;;;;6.90;6.20;;;;;;;;;;5034488;28;20241;-58
2021/12/01 02:11:55;;;;;;;7.20;6.50;;;;;;;;;;5034540;28;20319;-58
2021/12/01 02:14:22;;;;;;;7.37;6.03;;;;;;;;;;5034565;28;20203;-58
2021/12/01 02:16:49;;;;;;;7.00;6.27;;;;;;;;;;5034666;28;20443;-58
2021/12/01 02:19:15;;;;;;;6.70;6.00;;;;;;;;;;5034588;28;20432;-57
2021/12/01 02:21:42;;;;;;;7.47;6.40;;;;;;;;;;5034506;28;20221;-58
2021/12/01 02:24:10;;;;;;;6.97;6.27;;;;;;;;;;5034362;28;20295;-58
2021/12/01 02:26:38;;;;;;;6.80;6.10;;;;;;;;;;5034301;28;20203;-57
2021/12/01 02:29:05;;;;;;;7.77;6.97;;;;;;;;;;5034290;28;20201;-58
2021/12/01 02:31:36;;;;;;;7.43;6.73;;;;;;;;;;5034194;28;20482;-58
2021/12/01 02:34:02;;;;;;;8.53;7.50;;;;;;;;;;5034414;28;20197;-58
2021/12/01 02:36:28;;;;;;;8.87;7.83;;;;;;;;;;5034185;28;21127;-58
2021/12/01 02:38:56;;;;;;;8.40;7.60;;;;;;;;;;5034241;28;20228;-58
2021/12/01 02:41:26;;;;;;;8.40;7.50;;;;;;;;;;5033940;28;20700;-58
2021/12/01 02:43:52;;;;;;;8.13;7.33;;;;;;;;;;5034076;28;20280;-58
2021/12/01 02:46:18;;;;;;;9.33;8.33;;;;;;;;;;5033980;28;20204;-58
2021/12/01 02:48:46;;;;;;;11.43;9.07;;;;;;;;;;5034013;28;20652;-58
2021/12/01 02:51:12;;;;;;;9.20;8.30;;;;;;;;;;5033797;28;20721;-58
2021/12/01 02:53:38;;;;;;;9.83;8.60;;;;;;;;;;5033911;28;20477;-58
2021/12/01 02:56:06;;;;;;;9.97;8.97;;;;;;;;;;5033925;28;20614;-57
2021/12/01 02:58:33;;;;;;;10.70;9.60;;;;;;;;;;5033685;28;20200;-58
2021/12/01 03:01:01;;;;;;;11.57;9.40;;;;;;;;;;5033964;28;20279;-58
2021/12/01 03:03:28;;;;;;;10.57;9.13;;;;;;;;;;5033769;28;20296;-57
2021/12/01 03:05:54;;;;;;;12.37;10.20;;;;;;;;;;5033866;28;20511;-58
2021/12/01 03:08:21;;;;;;;11.43;10.33;;;;;;;;;;5033373;28;20718;-57
2021/12/01 03:10:50;;;;;;;11.17;10.03;;;;;;;;;;5033951;28;20228;-58
2021/12/01 03:13:18;;;;;;;11.93;10.73;;;;;;;;;;5033496;28;20203;-58
2021/12/01 03:15:44;;;;;;;11.07;9.87;;;;;;;;;;5033559;28;20205;-58
2021/12/01 03:18:11;;;;;;;12.30;11.00;;;;;;;;;;5033313;28;20288;-58
2021/12/01 03:20:37;;;;;;;12.60;11.10;;;;;;;;;;5033325;28;20193;-59
2021/12/01 03:23:03;;;;;;;12.20;11.00;;;;;;;;;;5033456;28;20204;-59
2021/12/01 03:25:30;;;;;;;11.77;10.57;;;;;;;;;;5033350;28;20233;-58
2021/12/01 03:27:56;;;;;;;11.70;10.50;;;;;;;;;;5033298;28;20231;-58
2021/12/01 03:30:23;;;;;;;11.33;10.33;;;;;;;;;;5033121;28;20209;-58
2021/12/01 03:32:50;;;;;;;11.87;10.67;;;;;;;;;;5033199;28;20271;-59
2021/12/01 03:35:16;;;;;;;10.63;9.63;;;;;;;;;;5033214;28;20209;-58
2021/12/01 03:37:43;;;;;;;10.90;9.80;;;;;;;;;;5033030;28;20201;-59
2021/12/01 03:40:09;;;;;;;10.97;9.90;;;;;;;;;;5032996;28;20679;-58
2021/12/01 03:42:35;;;;;;;9.87;8.93;;;;;;;;;;5032618;28;20209;-58
2021/12/01 03:45:02;;;;;;;10.30;9.30;;;;;;;;;;5033080;28;20201;-57
2021/12/01 03:47:29;;;;;;;9.73;8.93;;;;;;;;;;5032827;28;20201;-58
2021/12/01 03:49:55;;;;;;;8.20;7.50;;;;;;;;;;5032945;28;20279;-58
2021/12/01 03:52:23;;;;;;;8.90;8.10;;;;;;;;;;5032637;28;20347;-57
2021/12/01 03:54:49;;;;;;;8.90;8.20;;;;;;;;;;5032850;28;20284;-58
2021/12/01 03:57:16;;;;;;;8.70;7.90;;;;;;;;;;5032704;28;20196;-57
2021/12/01 03:59:42;;;;;;;8.00;7.30;;;;;;;;;;5032733;28;20189;-58
2021/12/01 04:02:08;;;;;;;8.10;7.40;;;;;;;;;;5032651;28;20243;-58
2021/12/01 04:04:35;;;;;;;7.60;7.00;;;;;;;;;;5031837;28;20723;-58
2021/12/01 04:07:02;;;;;;;7.00;6.40;;;;;;;;;;5032595;28;20204;-58
2021/12/01 04:09:28;;;;;;;6.80;6.20;;;;;;;;;;5032228;28;20271;-58
2021/12/01 04:11:54;;;;;;;5.87;5.47;;;;;;;;;;5032291;28;20227;-57
2021/12/01 04:14:20;;;;;;;6.57;5.70;;;;;;;;;;5032288;28;20619;-59
2021/12/01 04:16:46;;;;;;;5.00;4.67;;;;;;;;;;5032523;28;20207;-59
2021/12/01 04:19:12;;;;;;;4.17;3.87;;;;;;;;;;5032242;28;20201;-57
2021/12/01 04:21:40;;;;;;;3.80;3.50;;;;;;;;;;5032319;28;20244;-58
2021/12/01 04:24:06;;;;;;;4.80;3.80;;;;;;;;;;5032250;28;20201;-58
2021/12/01 04:26:33;;;;;;;3.50;3.27;;;;;;;;;;5032057;28;20196;-58
2021/12/01 04:28:59;;;;;;;3.30;2.97;;;;;;;;;;5032291;28;20220;-58
2021/12/01 04:31:26;;;;;;;3.27;2.97;;;;;;;;;;5031974;28;20221;-58
2021/12/01 04:33:52;;;;;;;3.13;2.93;;;;;;;;;;5032084;28;20244;-58
2021/12/01 04:36:18;;;;;;;4.10;3.80;;;;;;;;;;5032136;28;20204;-60
2021/12/01 04:38:45;;;;;;;3.67;3.37;;;;;;;;;;5032045;28;20243;-58
2021/12/01 04:41:15;;;;;;;3.83;3.53;;;;;;;;;;5031911;28;20667;-58
2021/12/01 04:43:41;;;;;;;4.27;3.97;;;;;;;;;;5031898;28;20201;-58
2021/12/01 04:46:08;;;;;;;4.37;3.97;;;;;;;;;;5031995;28;20205;-58
2021/12/01 04:48:34;;;;;;;4.87;4.50;;;;;;;;;;5031806;28;20221;-57
2021/12/01 04:51:00;;;;;;;4.20;3.90;;;;;;;;;;5031925;28;20228;-58
2021/12/01 04:53:27;;;;;;;4.40;4.10;;;;;;;;;;5031717;28;20240;-58
2021/12/01 04:55:54;;;;;;;4.77;4.37;;;;;;;;;;5031852;28;20195;-57
2021/12/01 04:58:21;;;;;;;4.33;3.90;;;;;;;;;;5031670;28;20200;-59
2021/12/01 05:00:47;;;;;;;4.27;3.90;;;;;;;;;;5031901;28;20193;-58
2021/12/01 05:03:13;;;;;;;4.10;3.80;;;;;;;;;;5031720;28;20197;-58
2021/12/01 05:05:39;;;;;;;4.73;4.23;;;;;;;;;;5031726;28;20221;-58
2021/12/01 05:08:05;;;;;;;3.93;3.50;;;;;;;;;;5031602;28;20239;-58
2021/12/01 05:10:31;;;;;;;3.60;3.30;;;;;;;;;;5031460;28;20272;-59
2021/12/01 05:12:58;;;;;;;3.50;3.30;;;;;;;;;;5031605;28;20201;-59
2021/12/01 05:15:24;;;;;;;3.50;3.20;;;;;;;;;;5032310;28;20205;-58
2021/12/01 05:17:50;;;;;;;4.00;3.27;;;;;;;;;;5035577;28;20223;-58
2021/12/01 05:20:17;;;;;;;3.30;3.00;;;;;;;;;;5035753;28;20679;-59
2021/12/01 05:22:44;;;;;;;2.93;2.60;;;;;;;;;;5035617;28;20292;-58
2021/12/01 05:25:10;;;;;;;2.90;2.70;;;;;;;;;;5035584;28;20209;-59
2021/12/01 05:27:36;;;;;;;3.00;2.80;;;;;;;;;;5035345;28;20201;-59
2021/12/01 05:30:04;;;;;;;3.37;3.10;;;;;;;;;;5035504;28;20288;-58
2021/12/01 05:32:31;;;;;;;2.93;2.73;;;;;;;;;;5035387;28;20228;-59
2021/12/01 05:34:57;;;;;;;3.07;2.87;;;;;;;;;;5035459;28;20205;-59
2021/12/01 05:37:23;;;;;;;3.27;2.97;;;;;;;;;;5035185;28;20219;-59
2021/12/01 05:39:49;;;;;;;3.13;2.83;;;;;;;;;;5035356;28;20204;-59
2021/12/01 05:42:16;;;;;;;3.57;3.30;;;;;;;;;;5035302;28;20193;-59
2021/12/01 05:44:43;;;;;;;3.03;2.80;;;;;;;;;;5035330;28;20606;-59
2021/12/01 05:47:10;;;;;;;3.70;2.80;;;;;;;;;;5035169;28;20255;-59
2021/12/01 05:49:44;;;;;;;3.07;2.87;;;;;;;;;;5035032;28;20224;-58
2021/12/01 05:52:10;;;;;;;3.07;2.87;;;;;;;;;;5035053;28;20255;-59
2021/12/01 05:54:37;;;;;;;3.60;3.00;;;;;;;;;;5034990;28;20220;-59
2021/12/01 05:57:03;;;;;;;3.20;3.00;;;;;;;;;;5035054;28;20207;-58
2021/12/01 05:59:29;;;;;;;2.80;2.60;;;;;;;;;;5034893;28;20205;-59
2021/12/01 06:01:55;;;;;;;3.37;3.10;;;;;;;;;;5034971;28;20201;-58
2021/12/01 06:04:24;;;;;;;4.43;2.83;;;;;;;;;;5034598;28;20205;-58
2021/12/01 06:06:50;;;;;;;3.47;2.73;;;;;;;;;;5034757;28;20308;-59
2021/12/01 06:09:16;;;;;;;5.40;3.90;;;;;;;;;;5034128;28;20239;-58
2021/12/01 06:11:42;;;;;;;3.30;3.00;;;;;;;;;;5034072;28;20702;-57
2021/12/01 06:14:08;;;;;;;4.10;3.70;;;;;;;;;;5034621;28;20201;-58
2021/12/01 06:16:34;;;;;;;3.80;3.33;;;;;;;;;;5034265;28;20554;-59
2021/12/01 06:21:58;;;;;;;4.70;3.80;;;;;;;;;;4996821;28;20197;-58
2021/12/01 06:24:24;;;;;;;3.13;2.93;;;;;;;;;;5033957;28;20204;-59
2021/12/01 06:26:50;;;;;;;3.20;3.00;;;;;;;;;;5033882;28;20200;-59
2021/12/01 06:29:16;;;;;;;3.00;2.80;;;;;;;;;;5034395;28;20200;-59
2021/12/01 06:31:42;;;;;;;3.50;3.17;;;;;;;;;;5034091;28;20227;-59
2021/12/01 06:34:08;;;;;;;3.10;2.90;;;;;;;;;;5034505;28;20698;-59
2021/12/01 06:36:34;;;;;;;3.20;2.90;;;;;;;;;;5033987;28;20205;-59
2021/12/01 06:39:03;;;;;;;3.60;3.30;;;;;;;;;;5034033;28;20674;-59
2021/12/01 06:41:29;;;;;;;3.93;3.27;;;;;;;;;;5034271;28;20228;-59
2021/12/01 06:43:55;;;;;;;3.40;3.10;;;;;;;;;;5034023;28;20209;-59
2021/12/01 06:46:22;;;;;;;3.70;3.30;;;;;;;;;;5033948;28;20299;-58
2021/12/01 06:48:48;;;;;;;3.37;3.07;;;;;;;;;;5034142;28;20280;-59
2021/12/01 06:51:14;;;;;;;5.53;3.60;;;;;;;;;;5033934;28;20267;-58
2021/12/01 06:53:40;;;;;;;4.80;3.80;;;;;;;;;;5033788;28;20667;-58
2021/12/01 06:56:09;;;;;;;3.63;3.00;;;;;;;;;;5033804;28;20272;-59
2021/12/01 06:58:35;;;;;;;4.00;3.70;;;;;;;;;;5033507;28;20630;-59
2021/12/01 07:01:04;;;;;;;3.40;3.10;;;;;;;;;;5033977;28;20208;-59
2021/12/01 07:03:30;;;;;;;3.37;3.07;;;;;;;;;;5033836;28;20201;-58
2021/12/01 07:05:56;;;;;;;3.27;3.07;;;;;;;;;;5033643;28;20232;-59
2021/12/01 07:08:22;;;;;;;3.80;2.80;;;;;;;;;;5033162;28;20197;-58
2021/12/01 07:10:48;;;;;;;3.40;3.10;;;;;;;;;;5033157;28;20283;-60
2021/12/01 07:13:15;;;;;;;2.70;2.50;;;;;;;;;;5033644;28;20255;-59
2021/12/01 07:15:41;;;;;;;3.10;2.90;;;;;;;;;;5033470;28;20216;-60
2021/12/01 07:18:08;;;;;;;3.40;3.10;;;;;;;;;;5033371;28;20574;-59
2021/12/01 07:20:34;;;;;;;3.37;3.07;;;;;;;;;;5033285;28;20201;-59
2021/12/01 07:23:02;;;;;;;3.30;3.10;;;;;;;;;;5033308;28;20682;-59
2021/12/01 07:25:28;;;;;;;3.63;3.33;;;;;;;;;;5033362;28;20216;-57
2021/12/01 07:27:54;;;;;;;4.00;3.70;;;;;;;;;;5033302;28;20675;-59
2021/12/01 07:30:21;;;;;;;3.77;3.37;;;;;;;;;;5033230;28;20236;-59
2021/12/01 07:32:49;;;;;;;4.00;3.67;;;;;;;;;;5033049;28;20647;-59
2021/12/01 07:35:15;;;;;;;3.67;3.37;;;;;;;;;;5033161;28;20208;-59
2021/12/01 07:37:41;;;;;;;3.67;3.37;;;;;;;;;;5032456;28;20237;-60
2021/12/01 07:40:08;;;;;;;4.83;4.20;;;;;;;;;;5032722;28;20292;-60
2021/12/01 07:42:34;;;;;;;4.90;3.80;;;;;;;;;;5032659;28;20209;-59
2021/12/01 07:45:00;;;;;;;5.33;4.23;;;;;;;;;;5032954;28;20304;-60
2021/12/01 07:47:27;;;;;;;4.87;4.47;;;;;;;;;;5032446;28;20615;-60
2021/12/01 07:49:53;;;;;;;4.30;4.00;;;;;;;;;;5032732;28;20209;-60
2021/12/01 07:52:19;;;;;;;4.93;4.50;;;;;;;;;;5032523;28;20224;-60
2021/12/01 07:54:46;;;;;;;4.27;3.97;;;;;;;;;;5032948;28;20621;-60
2021/12/01 07:57:11;;;;;;;3.80;3.50;;;;;;;;;;5032484;28;20280;-59
2021/12/01 07:59:37;;;;;;;4.27;3.77;;;;;;;;;;5032569;28;20292;-59
2021/12/01 08:02:04;;;;;;;3.77;3.47;;;;;;;;;;5032620;28;20193;-58
2021/12/01 08:04:31;;;;;;;3.97;3.60;;;;;;;;;;5032462;28;20655;-58
2021/12/01 08:06:57;;;;;;;3.97;3.57;;;;;;;;;;5032634;28;20447;-58
2021/12/01 08:09:25;;;;;;;4.13;3.73;;;;;;;;;;5031930;28;20483;-60
2021/12/01 08:11:51;;;;;;;4.00;3.70;;;;;;;;;;5032206;28;20263;-59
2021/12/01 08:14:17;;;;;;;3.77;3.47;;;;;;;;;;5032305;28;20199;-59
2021/12/01 08:16:43;;;;;;;4.00;3.67;;;;;;;;;;5032068;28;20204;-59
2021/12/01 08:19:09;;;;;;;3.60;3.20;;;;;;;;;;5032221;28;20242;-59
2021/12/01 08:21:36;;;;;;;3.50;3.20;;;;;;;;;;5031990;28;20646;-59
2021/12/01 08:24:02;;;;;;;3.20;3.00;;;;;;;;;;5032197;28;20201;-60
2021/12/01 08:26:29;;;;;;;3.90;3.10;;;;;;;;;;5032348;28;20201;-58
2021/12/01 08:28:55;;;;;;;3.40;3.10;;;;;;;;;;5032256;28;20192;-59
2021/12/01 08:31:21;;;;;;;2.90;2.70;;;;;;;;;;5031777;28;20640;-59
2021/12/01 08:33:48;;;;;;;3.30;3.00;;;;;;;;;;5032226;28;20197;-58
2021/12/01 08:36:14;;;;;;;3.10;2.50;;;;;;;;;;5032118;28;20193;-58
2021/12/01 08:38:42;;;;;;;3.83;2.80;;;;;;;;;;5031950;28;20617;-58
2021/12/01 08:41:08;;;;;;;2.73;2.53;;;;;;;;;;5032023;28;20968;-57
2021/12/01 08:43:35;;;;;;;2.90;2.70;;;;;;;;;;5031780;28;20201;-58
2021/12/01 08:46:01;;;;;;;3.43;3.10;;;;;;;;;;5032077;28;20215;-59
2021/12/01 08:48:27;;;;;;;4.57;3.20;;;;;;;;;;5031818;28;20195;-59
2021/12/01 08:50:56;;;;;;;2.77;2.57;;;;;;;;;;5031685;28;21204;-60
2021/12/01 08:53:22;;;;;;;3.33;2.60;;;;;;;;;;5031840;28;20291;-59
2021/12/01 08:55:49;;;;;;;2.63;2.43;;;;;;;;;;5031832;28;20212;-58
2021/12/01 08:58:15;;;;;;;2.80;2.60;;;;;;;;;;5031769;28;20213;-59
2021/12/01 09:00:44;;;;;;;2.67;2.47;;;;;;;;;;5031669;28;20193;-60
2021/12/01 09:03:10;;;;;;;2.77;2.57;;;;;;;;;;5031902;28;20255;-58
2021/12/01 09:05:36;;;;;;;3.40;2.60;;;;;;;;;;5031481;28;20221;-59
2021/12/01 09:08:02;;;;;;;3.43;2.63;;;;;;;;;;5031585;28;20660;-62
2021/12/01 09:10:28;;;;;;;2.30;2.10;;;;;;;;;;5031407;28;20233;-73
2021/12/01 09:12:56;;;;;;;2.30;2.07;;;;;;;;;;5029809;28;20279;-65
2021/12/01 09:15:22;;;;;;;2.00;1.90;;;;;;;;;;5031723;28;20204;-63
2021/12/01 09:17:48;;;;;;;2.60;2.40;;;;;;;;;;5031457;28;20196;-66
2021/12/01 09:20:14;;;;;;;2.10;2.00;;;;;;;;;;5031411;28;20655;-65
2021/12/01 09:22:40;;;;;;;2.50;2.30;;;;;;;;;;5031261;28;20259;-60
2021/12/01 09:25:07;;;;;;;2.37;2.03;;;;;;;;;;5031753;28;20254;-63
2021/12/01 09:27:33;;;;;;;2.60;1.93;;;;;;;;;;5031546;28;20223;-62
2021/12/01 09:30:00;;;;;;;2.00;1.87;;;;;;;;;;5031689;28;20291;-62
2021/12/01 09:32:26;;;;;;;2.80;1.80;;;;;;;;;;5031426;28;20264;-61
2021/12/01 09:34:52;;;;;;;1.73;1.63;;;;;;;;;;5031558;28;20670;-61
2021/12/01 09:37:18;;;;;;;1.70;1.60;;;;;;;;;;5031635;28;20205;-62
2021/12/01 09:39:44;;;;;;;2.17;1.60;;;;;;;;;;5031506;28;20217;-62
2021/12/01 09:42:11;;;;;;;1.57;1.47;;;;;;;;;;5031497;28;20255;-62
2021/12/01 09:44:38;;;;;;;1.70;1.60;;;;;;;;;;5031446;28;20208;-63
2021/12/01 09:47:06;;;;;;;2.17;1.73;;;;;;;;;;5031478;28;20204;-62
2021/12/01 09:49:32;;;;;;;1.77;1.40;;;;;;;;;;5031561;28;20213;-63
2021/12/01 09:51:58;;;;;;;1.67;1.33;;;;;;;;;;5031383;28;20675;-62
2021/12/01 09:54:24;;;;;;;1.40;1.30;;;;;;;;;;5031313;28;20228;-62
2021/12/01 09:56:50;;;;;;;1.60;1.50;;;;;;;;;;5031491;28;20201;-62
2021/12/01 09:59:16;;;;;;;1.80;1.43;;;;;;;;;;5031524;28;20296;-62
2021/12/01 10:01:42;;;;;;;1.20;1.20;;;;;;;;;;5032448;28;20219;-60
2021/12/01 10:04:10;;;;;;;1.30;1.20;;;;;;;;;;5034926;28;20197;-61
2021/12/01 10:06:36;;;;;;;1.47;1.37;;;;;;;;;;5034571;28;20212;-62
2021/12/01 10:09:04;;;;;;;1.30;1.20;;;;;;;;;;5034687;28;20237;-62
2021/12/01 10:11:31;;;;;;;1.40;1.30;;;;;;;;;;5034577;28;20291;-62
2021/12/01 10:13:58;;;;;;;1.30;1.20;;;;;;;;;;5034939;28;20723;-61
2021/12/01 10:16:26;;;;;;;1.40;1.30;;;;;;;;;;5034585;28;20216;-61
2021/12/01 10:18:53;;;;;;;1.10;1.10;;;;;;;;;;5034835;28;20201;-62
2021/12/01 10:21:22;;;;;;;1.40;1.30;;;;;;;;;;5034726;28;20207;-62
2021/12/01 10:23:49;;;;;;;1.10;1.10;;;;;;;;;;5034492;28;20204;-61
2021/12/01 10:26:17;;;;;;;2.27;1.30;;;;;;;;;;5034490;28;20201;-60
2021/12/01 10:28:44;;;;;;;1.10;1.10;;;;;;;;;;5032527;28;20224;-61
2021/12/01 10:31:11;;;;;;;1.33;1.23;;;;;;;;;;5034039;28;20231;-62
2021/12/01 10:33:37;;;;;;;1.40;1.30;;;;;;;;;;5033868;28;20304;-62
2021/12/01 10:36:06;;;;;;;1.43;1.33;;;;;;;;;;5034096;28;20247;-61
2021/12/01 10:38:35;;;;;;;1.43;1.33;;;;;;;;;;5033935;28;20211;-62
2021/12/01 10:41:03;;;;;;;1.00;1.00;;;;;;;;;;5034283;28;20205;-61
2021/12/01 10:43:35;;;;;;;1.37;1.20;;;;;;;;;;5033961;28;20280;-61
2021/12/01 10:46:06;;;;;;;1.40;1.30;;;;;;;;;;5033909;28;20541;-60
2021/12/01 10:48:32;;;;;;;1.30;1.20;;;;;;;;;;5033805;28;20630;-60
2021/12/01 10:50:58;;;;;;;1.20;1.10;;;;;;;;;;5033728;28;20243;-59
2021/12/01 10:53:26;;;;;;;1.83;1.30;;;;;;;;;;5033639;28;20205;-62
2021/12/01 10:55:54;;;;;;;1.50;1.40;;;;;;;;;;5033704;28;20284;-60
2021/12/01 10:58:21;;;;;;;1.40;1.30;;;;;;;;;;5033561;28;20236;-61
2021/12/01 11:00:48;;;;;;;1.73;1.33;;;;;;;;;;5033560;28;20624;-60
2021/12/01 11:03:15;;;;;;;1.50;1.40;;;;;;;;;;5033590;28;20201;-61
2021/12/01 11:05:41;;;;;;;1.33;1.23;;;;;;;;;;5033342;28;20217;-62
2021/12/01 11:08:12;;;;;;;1.33;1.20;;;;;;;;;;5033327;28;20203;-59
2021/12/01 11:10:38;;;;;;;1.40;1.30;;;;;;;;;;5033242;28;20707;-60
2021/12/01 11:13:06;;;;;;;1.40;1.30;;;;;;;;;;5032087;28;20276;-60
2021/12/01 11:15:33;;;;;;;1.30;1.20;;;;;;;;;;5033343;28;20566;-61
2021/12/01 11:17:59;;;;;;;1.10;1.10;;;;;;;;;;5033645;28;20730;-61
2021/12/01 11:20:32;;;;;;;1.40;1.30;;;;;;;;;;5033427;28;20189;-62
2021/12/01 11:23:07;;;;;;;0.90;0.90;;;;;;;;;;5033644;28;20200;-61
2021/12/01 11:25:35;;;;;;;1.40;1.30;;;;;;;;;;5033384;28;20196;-62
2021/12/01 11:28:02;;;;;;;1.30;1.30;;;;;;;;;;5033649;28;20220;-60
2021/12/01 11:30:29;;;;;;;1.40;1.30;;;;;;;;;;5033186;28;20664;-62
2021/12/01 11:32:55;;;;;;;1.50;1.40;;;;;;;;;;5033391;28;20232;-62
2021/12/01 11:35:21;;;;;;;1.90;1.30;;;;;;;;;;5033188;28;20259;-63
2021/12/01 11:37:54;;;;;;;1.23;1.20;;;;;;;;;;5033093;28;20726;-62
2021/12/01 11:40:20;;;;;;;2.37;1.30;;;;;;;;;;5033016;28;20205;-62
2021/12/01 11:42:47;;;;;;;1.40;1.30;;;;;;;;;;5033279;28;20205;-62
2021/12/01 11:45:13;;;;;;;1.30;1.20;;;;;;;;;;5033262;28;20227;-62
2021/12/01 11:47:46;;;;;;;1.47;1.37;;;;;;;;;;5032937;28;20650;-62
2021/12/01 11:50:13;;;;;;;1.23;1.20;;;;;;;;;;5033062;28;20204;-62
2021/12/01 11:52:47;;;;;;;1.20;1.20;;;;;;;;;;5032732;28;20460;-57
2021/12/01 11:55:13;;;;;;;1.60;1.50;;;;;;;;;;5032971;28;20196;-61
2021/12/01 11:57:40;;;;;;;3.57;1.63;;;;;;;;;;5032710;28;20211;-63
2021/12/01 12:00:08;;;;;;;1.80;1.70;;;;;;;;;;5032860;28;20205;-63
2021/12/01 12:02:36;;;;;;;1.67;1.47;;;;;;;;;;5032429;28;20197;-63
2021/12/01 12:05:15;;;;;;;2.20;1.57;;;;;;;;;;5032701;28;20221;-63
2021/12/01 12:07:43;;;;;;;1.90;1.80;;;;;;;;;;5030825;28;20296;-62
2021/12/01 12:10:14;;;;;;;1.87;1.77;;;;;;;;;;5032466;28;20248;-64
2021/12/01 12:12:48;;;;;;;2.37;1.90;;;;;;;;;;5032345;28;20268;-65
2021/12/01 12:15:29;;;;;;;2.00;1.90;;;;;;;;;;5032655;28;20659;-64
2021/12/01 12:17:55;;;;;;;2.20;2.10;;;;;;;;;;5032227;28;20621;-65
2021/12/01 12:20:30;;;;;;;1.90;1.80;;;;;;;;;;5032553;28;20197;-66
2021/12/01 12:22:58;;;;;;;1.70;1.60;;;;;;;;;;5032559;28;20258;-67
2021/12/01 12:25:36;;;;;;;1.83;1.73;;;;;;;;;;5032009;28;20252;-67
2021/12/01 12:28:18;;;;;;;1.60;1.50;;;;;;;;;;5032412;28;20208;-66
2021/12/01 12:30:44;;;;;;;1.70;1.60;;;;;;;;;;5032239;28;20201;-66
2021/12/01 12:33:16;;;;;;;2.10;1.43;;;;;;;;;;5032301;28;20241;-65
2021/12/01 12:35:45;;;;;;;1.23;1.20;;;;;;;;;;5032045;28;20232;-66
2021/12/01 12:38:11;;;;;;;1.40;1.30;;;;;;;;;;5014526;28;20208;-66
2021/12/01 12:40:38;;;;;;;2.50;1.20;;;;;;;;;;5032169;28;20201;-64
2021/12/01 12:43:05;;;;;;;1.33;1.23;;;;;;;;;;5032217;28;20288;-65
2021/12/01 12:45:31;;;;;;;1.00;1.00;;;;;;;;;;5032163;28;20205;-65
2021/12/01 12:47:57;;;;;;;2.23;1.10;;;;;;;;;;5031853;28;20201;-66
2021/12/01 12:50:24;;;;;;;3.03;1.13;;;;;;;;;;5031943;28;20197;-65
2021/12/01 12:52:52;;;;;;;1.30;1.23;;;;;;;;;;5032020;28;20232;-65
2021/12/01 12:55:38;;;;;;;2.37;1.10;;;;;;;;;;5032014;28;20224;-65
2021/12/01 12:58:05;;;;;;;1.83;1.20;;;;;;;;;;5031951;28;20594;-66
2021/12/01 13:00:32;;;;;;;1.00;1.00;;;;;;;;;;5031895;28;20201;-65
2021/12/01 13:02:59;;;;;;;0.90;0.90;;;;;;;;;;5032053;28;20196;-66
2021/12/01 13:05:32;;;;;;;1.03;1.00;;;;;;;;;;5031849;28;20232;-64
2021/12/01 13:08:00;;;;;;;1.20;1.10;;;;;;;;;;5031930;28;20208;-64
2021/12/01 13:10:27;;;;;;;1.60;1.10;;;;;;;;;;5031548;28;20228;-65
2021/12/01 13:12:57;;;;;;;2.83;1.07;;;;;;;;;;5031612;28;20235;-63
2021/12/01 13:15:25;;;;;;;1.67;1.10;;;;;;;;;;5015552;28;20233;-67
2021/12/01 13:17:52;;;;;;;1.40;1.30;;;;;;;;;;5011904;28;20208;-66
2021/12/01 13:20:19;;;;;;;1.40;1.30;;;;;;;;;;5011655;28;20232;-66
2021/12/01 13:23:00;;;;;;;3.40;1.10;;;;;;;;;;5012526;28;20211;-63
2021/12/01 13:25:27;;;;;;;4.10;1.17;;;;;;;;;;5023223;28;20281;-66
2021/12/01 13:27:53;;;;;;;0.90;0.70;;;;;;;;;;5011724;28;20684;-64
2021/12/01 13:30:19;;;;;;;2.50;0.93;;;;;;;;;;5012040;28;20213;-61
2021/12/01 13:32:45;;;;;;;2.00;1.03;;;;;;;;;;5021742;28;20236;-64
2021/12/01 13:35:11;;;;;;;1.80;1.10;;;;;;;;;;5029696;28;20232;-63
2021/12/01 13:37:37;;;;;;;2.50;1.20;;;;;;;;;;5033853;28;20204;-61
2021/12/01 13:40:07;;;;;;;2.00;1.40;;;;;;;;;;5035240;28;20204;-64
2021/12/01 13:42:35;;;;;;;5.40;1.40;;;;;;;;;;5035199;28;20259;-63
2021/12/01 13:45:01;;;;;;;1.37;1.03;;;;;;;;;;5035347;28;20213;-62
2021/12/01 13:47:30;;;;;;;2.33;1.30;;;;;;;;;;5035209;28;20203;-63
2021/12/01 13:49:59;;;;;;;1.33;1.10;;;;;;;;;;5033469;28;20211;-62
2021/12/01 13:52:26;;;;;;;2.67;1.23;;;;;;;;;;5033267;28;20283;-63
2021/12/01 13:54:52;;;;;;;1.60;1.50;;;;;;;;;;5035101;28;20255;-62
2021/12/01 13:57:18;;;;;;;2.43;1.20;;;;;;;;;;5035118;28;20196;-64
2021/12/01 13:59:47;;;;;;;4.27;1.43;;;;;;;;;;5035081;28;20207;-63
2021/12/01 14:02:20;;;;;;;2.23;1.37;;;;;;;;;;5035014;28;20197;-61
2021/12/01 14:04:48;;;;;;;3.43;1.30;;;;;;;;;;5034838;28;20231;-62
2021/12/01 14:07:14;;;;;;;3.60;1.33;;;;;;;;;;5034905;28;20201;-63
2021/12/01 14:10:04;;;;;;;3.10;1.17;;;;;;;;;;5034414;28;20243;-62
2021/12/01 14:12:45;;;;;;;1.83;1.10;;;;;;;;;;5034715;28;20679;-63
2021/12/01 14:15:12;;;;;;;3.33;1.30;;;;;;;;;;5031613;28;20666;-61
2021/12/01 14:17:39;;;;;;;3.07;1.33;;;;;;;;;;5034231;28;20221;-63
2021/12/01 14:20:06;;;;;;;3.70;1.77;;;;;;;;;;5034735;28;20267;-63
2021/12/01 14:22:33;;;;;;;4.20;1.80;;;;;;;;;;5034723;28;20201;-61
2021/12/01 14:25:02;;;;;;;3.60;1.30;;;;;;;;;;5034281;28;20670;-62
2021/12/01 14:27:30;;;;;;;3.50;1.27;;;;;;;;;;5034425;28;20213;-62
2021/12/01 14:29:57;;;;;;;1.83;1.30;;;;;;;;;;5034387;28;20210;-64
2021/12/01 14:32:25;;;;;;;1.63;1.30;;;;;;;;;;5034209;28;20221;-62
2021/12/01 14:34:52;;;;;;;3.30;1.30;;;;;;;;;;5034053;28;20209;-63
2021/12/01 14:37:18;;;;;;;1.87;1.27;;;;;;;;;;5034283;28;20197;-62
2021/12/01 14:39:44;;;;;;;2.07;1.07;;;;;;;;;;5034237;28;20574;-63
2021/12/01 14:42:11;;;;;;;4.73;1.90;;;;;;;;;;5034086;28;20213;-65
2021/12/01 14:44:38;;;;;;;4.30;1.70;;;;;;;;;;5033977;28;20280;-65
2021/12/01 14:47:05;;;;;;;4.40;1.37;;;;;;;;;;5033617;28;20197;-61
2021/12/01 14:49:40;;;;;;;3.83;1.77;;;;;;;;;;5034185;28;20197;-63